This is the latest recevied weather packets stored in our database for station/object DH0DM-13. If no packets are shown the sender has not sent any weather packets the latest 10 day(s).
| Time | Temp. | Humidity | Pressure | Rain* | Wind** | Luminosity | Snow |
|---|---|---|---|---|---|---|---|
| 1777797531 | 23.33° C | 34% | 988.7 hPa | 0 mm | 4.92 m/s, 127° | - | - |
| 1777796930 | 23.33° C | 34% | 988.8 hPa | 0 mm | 4.92 m/s, 211° | - | - |
| 1777796329 | 22.78° C | 35% | 988.8 hPa | 0 mm | 5.36 m/s, 80° | - | - |
| 1777795728 | 22.78° C | 35% | 988.8 hPa | 0 mm | 2.68 m/s, 167° | - | - |
| 1777794526 | 22.22° C | 35% | 988.9 hPa | 0 mm | 4.92 m/s, 174° | - | - |
| 1777793925 | 21.67° C | 37% | 988.8 hPa | 0 mm | 4.92 m/s, 235° | - | - |
| 1777793324 | 21.11° C | 36% | 988.7 hPa | 0 mm | 8.49 m/s, 186° | - | - |
| 1777792723 | 20.56° C | 37% | 988.9 hPa | 0 mm | 3.58 m/s, 342° | - | - |
| 1777792123 | 20° C | 38% | 988.7 hPa | 0 mm | 0.89 m/s, 106° | - | - |
| 1777791522 | 19.44° C | 40% | 989 hPa | 0 mm | 0.45 m/s, 254° | - | - |
| 1777790921 | 19.44° C | 39% | 988.8 hPa | 0 mm | 3.58 m/s, 204° | - | - |
| 1777790320 | 18.33° C | 40% | 989 hPa | 0 mm | 3.58 m/s, 184° | - | - |
| 1777789719 | 18.33° C | 40% | 988.8 hPa | 0 mm | 3.58 m/s, 188° | - | - |
| 1777789118 | 18.33° C | 41% | 988.7 hPa | 0 mm | 0.89 m/s, 204° | - | - |
| 1777788517 | 18.33° C | 41% | 988.8 hPa | 0 mm | 2.68 m/s, 212° | - | - |
| 1777787916 | 17.78° C | 41% | 989 hPa | 0 mm | 5.36 m/s, 226° | - | - |
| 1777787316 | 17.22° C | 42% | 988.7 hPa | 0 mm | 2.68 m/s, 111° | - | - |
| 1777786715 | 16.67° C | 42% | 988.8 hPa | 0 mm | 9.83 m/s, 150° | - | - |
| 1777786114 | 16.11° C | 43% | 988.6 hPa | 0 mm | 4.92 m/s, 164° | - | - |
| 1777785513 | 16.11° C | 43% | 988.7 hPa | 0 mm | 8.49 m/s, 74° | - | - |
| 1777784912 | 16.11° C | 44% | 988.7 hPa | 0 mm | 0.89 m/s, 169° | - | - |
| 1777784311 | 15.56° C | 43% | 988.5 hPa | 0 mm | 5.36 m/s, 20° | - | - |
| 1777783710 | 15.56° C | 43% | 988.7 hPa | 0 mm | 0.89 m/s, 160° | - | - |
| 1777783109 | 15.56° C | 43% | 988.5 hPa | 0 mm | 3.58 m/s, 164° | - | - |
| 1777782509 | 15.56° C | 43% | 988.6 hPa | 0 mm | 4.47 m/s, 132° | - | - |
* Rain since midnight (hover to see other rain measurements)
** Current wind speed in m/s (hover to see current wind gust speed)